sensor_id;sensor_type;location;lat;lon;timestamp;temperature;humidity
25811;DHT22;13645;52.460;13.910;2022-08-19T00:01:54;21.90;99.90
25811;DHT22;13645;52.460;13.910;2022-08-19T00:04:24;21.90;99.90
25811;DHT22;13645;52.460;13.910;2022-08-19T00:06:52;22.00;99.90
25811;DHT22;13645;52.460;13.910;2022-08-19T00:09:23;22.00;99.90
25811;DHT22;13645;52.460;13.910;2022-08-19T00:11:51;22.00;99.90
25811;DHT22;13645;52.460;13.910;2022-08-19T00:14:19;21.90;99.90
25811;DHT22;13645;52.460;13.910;2022-08-19T00:16:48;21.80;99.90
25811;DHT22;13645;52.460;13.910;2022-08-19T00:19:16;21.80;99.90
25811;DHT22;13645;52.460;13.910;2022-08-19T00:21:43;21.80;99.90
25811;DHT22;13645;52.460;13.910;2022-08-19T00:24:13;21.80;99.90
25811;DHT22;13645;52.460;13.910;2022-08-19T00:26:41;21.70;99.90
25811;DHT22;13645;52.460;13.910;2022-08-19T00:29:10;21.60;99.90
25811;DHT22;13645;52.460;13.910;2022-08-19T00:31:39;21.60;99.90
25811;DHT22;13645;52.460;13.910;2022-08-19T00:34:06;21.60;99.90
25811;DHT22;13645;52.460;13.910;2022-08-19T00:36:32;21.50;99.90
25811;DHT22;13645;52.460;13.910;2022-08-19T00:39:00;21.50;99.90
25811;DHT22;13645;52.460;13.910;2022-08-19T00:41:27;21.50;99.90
25811;DHT22;13645;52.460;13.910;2022-08-19T00:46:30;21.20;99.90
25811;DHT22;13645;52.460;13.910;2022-08-19T00:49:00;21.10;99.90
25811;DHT22;13645;52.460;13.910;2022-08-19T00:51:30;21.10;99.90
25811;DHT22;13645;52.460;13.910;2022-08-19T00:54:00;21.00;99.90
25811;DHT22;13645;52.460;13.910;2022-08-19T00:56:28;20.90;99.90
25811;DHT22;13645;52.460;13.910;2022-08-19T00:58:56;20.60;99.90
25811;DHT22;13645;52.460;13.910;2022-08-19T01:01:24;20.60;99.90
25811;DHT22;13645;52.460;13.910;2022-08-19T01:03:53;20.50;99.90
25811;DHT22;13645;52.460;13.910;2022-08-19T01:06:26;20.60;99.90
25811;DHT22;13645;52.460;13.910;2022-08-19T01:08:54;20.70;99.90
25811;DHT22;13645;52.460;13.910;2022-08-19T01:11:23;20.60;99.90
25811;DHT22;13645;52.460;13.910;2022-08-19T01:14:00;20.70;99.90
25811;DHT22;13645;52.460;13.910;2022-08-19T01:16:28;20.60;99.90
25811;DHT22;13645;52.460;13.910;2022-08-19T01:18:59;20.60;99.90
25811;DHT22;13645;52.460;13.910;2022-08-19T01:21:43;20.60;99.90
25811;DHT22;13645;52.460;13.910;2022-08-19T01:24:14;20.70;99.90
25811;DHT22;13645;52.460;13.910;2022-08-19T01:26:49;20.70;99.90
25811;DHT22;13645;52.460;13.910;2022-08-19T01:29:17;20.60;99.90
25811;DHT22;13645;52.460;13.910;2022-08-19T01:31:49;20.60;99.90
25811;DHT22;13645;52.460;13.910;2022-08-19T01:34:19;20.60;99.90
25811;DHT22;13645;52.460;13.910;2022-08-19T01:36:47;20.60;99.90
25811;DHT22;13645;52.460;13.910;2022-08-19T01:39:23;20.60;99.90
25811;DHT22;13645;52.460;13.910;2022-08-19T01:41:51;20.60;99.90
25811;DHT22;13645;52.460;13.910;2022-08-19T01:44:21;20.60;99.90
25811;DHT22;13645;52.460;13.910;2022-08-19T01:46:50;20.60;99.90
25811;DHT22;13645;52.460;13.910;2022-08-19T01:49:20;20.60;99.90
25811;DHT22;13645;52.460;13.910;2022-08-19T01:51:48;20.50;99.90
25811;DHT22;13645;52.460;13.910;2022-08-19T01:54:17;20.50;99.90
25811;DHT22;13645;52.460;13.910;2022-08-19T01:56:57;20.50;99.90
25811;DHT22;13645;52.460;13.910;2022-08-19T01:59:26;20.50;99.90
25811;DHT22;13645;52.460;13.910;2022-08-19T02:01:54;20.60;99.90
25811;DHT22;13645;52.460;13.910;2022-08-19T02:04:21;20.60;99.90
25811;DHT22;13645;52.460;13.910;2022-08-19T02:06:49;20.60;99.90
25811;DHT22;13645;52.460;13.910;2022-08-19T02:09:17;20.50;99.90
25811;DHT22;13645;52.460;13.910;2022-08-19T02:11:43;20.50;99.90
25811;DHT22;13645;52.460;13.910;2022-08-19T02:14:10;20.50;99.90
25811;DHT22;13645;52.460;13.910;2022-08-19T02:16:37;20.50;99.90
25811;DHT22;13645;52.460;13.910;2022-08-19T02:19:04;20.40;99.90
25811;DHT22;13645;52.460;13.910;2022-08-19T02:21:31;20.50;99.90
25811;DHT22;13645;52.460;13.910;2022-08-19T02:23:59;20.40;99.90
25811;DHT22;13645;52.460;13.910;2022-08-19T02:26:26;20.40;99.90
25811;DHT22;13645;52.460;13.910;2022-08-19T02:28:53;20.40;99.90
25811;DHT22;13645;52.460;13.910;2022-08-19T02:31:23;20.50;99.90
25811;DHT22;13645;52.460;13.910;2022-08-19T02:33:51;20.40;99.90
25811;DHT22;13645;52.460;13.910;2022-08-19T02:36:22;20.40;99.90
25811;DHT22;13645;52.460;13.910;2022-08-19T02:38:50;20.30;99.90
25811;DHT22;13645;52.460;13.910;2022-08-19T02:41:32;20.30;99.90
25811;DHT22;13645;52.460;13.910;2022-08-19T02:44:01;20.30;99.90
25811;DHT22;13645;52.460;13.910;2022-08-19T02:46:48;20.30;99.90
25811;DHT22;13645;52.460;13.910;2022-08-19T02:49:18;20.30;99.90
25811;DHT22;13645;52.460;13.910;2022-08-19T02:51:46;20.30;99.90
25811;DHT22;13645;52.460;13.910;2022-08-19T02:54:14;20.30;99.90
25811;DHT22;13645;52.460;13.910;2022-08-19T02:56:42;20.30;99.90
25811;DHT22;13645;52.460;13.910;2022-08-19T02:59:10;20.30;99.90
25811;DHT22;13645;52.460;13.910;2022-08-19T03:01:39;20.30;99.90
25811;DHT22;13645;52.460;13.910;2022-08-19T03:04:08;20.20;99.90
25811;DHT22;13645;52.460;13.910;2022-08-19T03:06:38;20.20;99.90
25811;DHT22;13645;52.460;13.910;2022-08-19T03:09:05;20.20;99.90
25811;DHT22;13645;52.460;13.910;2022-08-19T03:11:32;20.30;99.90
25811;DHT22;13645;52.460;13.910;2022-08-19T03:14:00;20.30;99.90
25811;DHT22;13645;52.460;13.910;2022-08-19T03:16:29;20.20;99.90
25811;DHT22;13645;52.460;13.910;2022-08-19T03:19:00;20.20;99.90
25811;DHT22;13645;52.460;13.910;2022-08-19T03:21:31;20.20;99.90
25811;DHT22;13645;52.460;13.910;2022-08-19T03:24:00;20.20;99.90
25811;DHT22;13645;52.460;13.910;2022-08-19T03:26:27;20.20;99.90
25811;DHT22;13645;52.460;13.910;2022-08-19T03:28:55;20.20;99.90
25811;DHT22;13645;52.460;13.910;2022-08-19T03:31:26;20.20;99.90
25811;DHT22;13645;52.460;13.910;2022-08-19T03:34:32;20.20;99.90
25811;DHT22;13645;52.460;13.910;2022-08-19T03:37:07;20.20;99.90
25811;DHT22;13645;52.460;13.910;2022-08-19T03:39:36;20.20;99.90
25811;DHT22;13645;52.460;13.910;2022-08-19T03:42:04;20.20;99.90
25811;DHT22;13645;52.460;13.910;2022-08-19T03:44:51;20.20;99.90
25811;DHT22;13645;52.460;13.910;2022-08-19T03:47:19;20.20;99.90
25811;DHT22;13645;52.460;13.910;2022-08-19T03:49:45;20.20;99.90
25811;DHT22;13645;52.460;13.910;2022-08-19T03:52:12;20.30;99.90
25811;DHT22;13645;52.460;13.910;2022-08-19T03:54:39;20.30;99.90
25811;DHT22;13645;52.460;13.910;2022-08-19T03:57:06;20.20;99.90
25811;DHT22;13645;52.460;13.910;2022-08-19T03:59:36;20.10;99.90
25811;DHT22;13645;52.460;13.910;2022-08-19T04:02:08;20.10;99.90
25811;DHT22;13645;52.460;13.910;2022-08-19T04:04:41;20.10;99.90
25811;DHT22;13645;52.460;13.910;2022-08-19T04:07:11;20.00;99.90
25811;DHT22;13645;52.460;13.910;2022-08-19T04:09:41;20.10;99.90
25811;DHT22;13645;52.460;13.910;2022-08-19T04:12:08;20.10;99.90
25811;DHT22;13645;52.460;13.910;2022-08-19T04:14:35;20.10;99.90
25811;DHT22;13645;52.460;13.910;2022-08-19T04:17:03;20.10;99.90
25811;DHT22;13645;52.460;13.910;2022-08-19T04:19:34;20.10;99.90
25811;DHT22;13645;52.460;13.910;2022-08-19T04:22:02;20.00;99.90
25811;DHT22;13645;52.460;13.910;2022-08-19T04:24:29;20.10;99.90
25811;DHT22;13645;52.460;13.910;2022-08-19T04:26:56;20.10;99.90
25811;DHT22;13645;52.460;13.910;2022-08-19T04:29:24;20.10;99.90
25811;DHT22;13645;52.460;13.910;2022-08-19T04:31:53;20.10;99.90
25811;DHT22;13645;52.460;13.910;2022-08-19T04:34:22;20.10;99.90
25811;DHT22;13645;52.460;13.910;2022-08-19T04:36:52;20.00;99.90
25811;DHT22;13645;52.460;13.910;2022-08-19T04:39:21;20.00;99.90
25811;DHT22;13645;52.460;13.910;2022-08-19T04:41:49;20.10;99.90
25811;DHT22;13645;52.460;13.910;2022-08-19T04:44:36;20.10;99.90
25811;DHT22;13645;52.460;13.910;2022-08-19T04:47:11;20.10;99.90
25811;DHT22;13645;52.460;13.910;2022-08-19T04:49:38;20.10;99.90
25811;DHT22;13645;52.460;13.910;2022-08-19T04:52:05;20.10;99.90
25811;DHT22;13645;52.460;13.910;2022-08-19T04:54:32;20.10;99.90
25811;DHT22;13645;52.460;13.910;2022-08-19T04:57:06;20.20;99.90
25811;DHT22;13645;52.460;13.910;2022-08-19T04:59:35;20.20;99.90
25811;DHT22;13645;52.460;13.910;2022-08-19T05:02:02;20.20;99.90
25811;DHT22;13645;52.460;13.910;2022-08-19T05:04:29;20.20;99.90
25811;DHT22;13645;52.460;13.910;2022-08-19T05:07:00;20.30;99.90
25811;DHT22;13645;52.460;13.910;2022-08-19T05:09:29;20.30;99.90
25811;DHT22;13645;52.460;13.910;2022-08-19T05:12:16;20.30;99.90
25811;DHT22;13645;52.460;13.910;2022-08-19T05:14:44;20.40;99.90
25811;DHT22;13645;52.460;13.910;2022-08-19T05:17:13;20.40;99.90
25811;DHT22;13645;52.460;13.910;2022-08-19T05:20:00;20.40;99.90
25811;DHT22;13645;52.460;13.910;2022-08-19T05:22:46;20.50;99.90
25811;DHT22;13645;52.460;13.910;2022-08-19T05:25:16;20.50;99.90
25811;DHT22;13645;52.460;13.910;2022-08-19T05:28:04;20.60;99.90
25811;DHT22;13645;52.460;13.910;2022-08-19T05:30:31;20.60;99.90
25811;DHT22;13645;52.460;13.910;2022-08-19T05:33:12;20.70;99.90
25811;DHT22;13645;52.460;13.910;2022-08-19T05:35:40;20.80;99.90
25811;DHT22;13645;52.460;13.910;2022-08-19T05:38:08;20.80;99.90
25811;DHT22;13645;52.460;13.910;2022-08-19T05:40:35;20.80;99.90
25811;DHT22;13645;52.460;13.910;2022-08-19T05:43:06;20.90;99.90
25811;DHT22;13645;52.460;13.910;2022-08-19T05:45:39;20.90;99.90
25811;DHT22;13645;52.460;13.910;2022-08-19T05:48:06;21.00;99.90
25811;DHT22;13645;52.460;13.910;2022-08-19T05:50:34;21.00;99.90
25811;DHT22;13645;52.460;13.910;2022-08-19T05:53:01;21.00;99.90
25811;DHT22;13645;52.460;13.910;2022-08-19T05:55:28;21.10;99.90
25811;DHT22;13645;52.460;13.910;2022-08-19T05:57:55;21.20;99.90
25811;DHT22;13645;52.460;13.910;2022-08-19T06:00:22;21.30;99.90
25811;DHT22;13645;52.460;13.910;2022-08-19T06:02:50;21.30;99.90
25811;DHT22;13645;52.460;13.910;2022-08-19T06:05:18;21.40;99.90
25811;DHT22;13645;52.460;13.910;2022-08-19T06:07:46;21.30;99.90
25811;DHT22;13645;52.460;13.910;2022-08-19T06:10:16;21.30;99.90
25811;DHT22;13645;52.460;13.910;2022-08-19T06:12:43;21.30;99.90
25811;DHT22;13645;52.460;13.910;2022-08-19T06:15:12;21.30;99.90
25811;DHT22;13645;52.460;13.910;2022-08-19T06:17:42;21.30;99.90
25811;DHT22;13645;52.460;13.910;2022-08-19T06:20:13;21.40;99.90
25811;DHT22;13645;52.460;13.910;2022-08-19T06:22:42;21.40;99.90
25811;DHT22;13645;52.460;13.910;2022-08-19T06:25:10;21.40;99.90
25811;DHT22;13645;52.460;13.910;2022-08-19T06:27:37;21.40;99.90
25811;DHT22;13645;52.460;13.910;2022-08-19T06:30:19;21.40;99.90
25811;DHT22;13645;52.460;13.910;2022-08-19T06:32:45;21.40;99.90
25811;DHT22;13645;52.460;13.910;2022-08-19T06:35:12;21.50;99.90
25811;DHT22;13645;52.460;13.910;2022-08-19T06:37:41;21.40;99.90
25811;DHT22;13645;52.460;13.910;2022-08-19T06:40:10;21.40;99.90
25811;DHT22;13645;52.460;13.910;2022-08-19T06:42:37;21.40;99.90
25811;DHT22;13645;52.460;13.910;2022-08-19T06:45:21;21.40;99.90
25811;DHT22;13645;52.460;13.910;2022-08-19T06:47:51;21.40;99.90
25811;DHT22;13645;52.460;13.910;2022-08-19T06:50:20;21.40;99.90
25811;DHT22;13645;52.460;13.910;2022-08-19T06:52:50;21.40;99.90
25811;DHT22;13645;52.460;13.910;2022-08-19T06:55:18;21.40;99.90
25811;DHT22;13645;52.460;13.910;2022-08-19T06:57:46;21.40;99.90
25811;DHT22;13645;52.460;13.910;2022-08-19T07:00:14;21.40;99.90
25811;DHT22;13645;52.460;13.910;2022-08-19T07:02:42;21.50;99.90
25811;DHT22;13645;52.460;13.910;2022-08-19T07:05:21;21.50;99.90
25811;DHT22;13645;52.460;13.910;2022-08-19T07:07:48;21.60;99.90
25811;DHT22;13645;52.460;13.910;2022-08-19T07:10:16;21.50;99.90
25811;DHT22;13645;52.460;13.910;2022-08-19T07:12:43;21.50;99.90
25811;DHT22;13645;52.460;13.910;2022-08-19T07:15:11;21.50;99.90
25811;DHT22;13645;52.460;13.910;2022-08-19T07:17:39;21.40;99.90
25811;DHT22;13645;52.460;13.910;2022-08-19T07:20:08;21.40;99.90
25811;DHT22;13645;52.460;13.910;2022-08-19T07:22:39;21.40;99.90
25811;DHT22;13645;52.460;13.910;2022-08-19T07:25:07;21.40;99.90
25811;DHT22;13645;52.460;13.910;2022-08-19T07:27:35;21.40;99.90
25811;DHT22;13645;52.460;13.910;2022-08-19T07:30:02;21.50;99.90
25811;DHT22;13645;52.460;13.910;2022-08-19T07:32:29;21.50;99.90
25811;DHT22;13645;52.460;13.910;2022-08-19T07:34:58;21.50;99.90
25811;DHT22;13645;52.460;13.910;2022-08-19T07:37:26;21.50;99.90
25811;DHT22;13645;52.460;13.910;2022-08-19T07:40:00;21.60;99.90
25811;DHT22;13645;52.460;13.910;2022-08-19T07:42:27;21.60;99.90
25811;DHT22;13645;52.460;13.910;2022-08-19T07:44:56;21.70;99.90
25811;DHT22;13645;52.460;13.910;2022-08-19T07:47:23;21.60;99.90
25811;DHT22;13645;52.460;13.910;2022-08-19T07:50:10;21.70;99.90
25811;DHT22;13645;52.460;13.910;2022-08-19T07:52:38;21.70;99.90
25811;DHT22;13645;52.460;13.910;2022-08-19T07:55:08;21.70;99.90
25811;DHT22;13645;52.460;13.910;2022-08-19T07:57:55;21.70;99.90
25811;DHT22;13645;52.460;13.910;2022-08-19T08:00:22;21.70;99.90
25811;DHT22;13645;52.460;13.910;2022-08-19T08:02:50;21.70;99.90
25811;DHT22;13645;52.460;13.910;2022-08-19T08:05:21;21.70;99.90
25811;DHT22;13645;52.460;13.910;2022-08-19T08:08:10;21.70;99.90
25811;DHT22;13645;52.460;13.910;2022-08-19T08:10:55;21.80;99.90
25811;DHT22;13645;52.460;13.910;2022-08-19T08:13:24;21.80;99.90
25811;DHT22;13645;52.460;13.910;2022-08-19T08:15:53;21.90;99.90
25811;DHT22;13645;52.460;13.910;2022-08-19T08:18:23;21.90;99.90
25811;DHT22;13645;52.460;13.910;2022-08-19T08:20:56;21.80;99.90
25811;DHT22;13645;52.460;13.910;2022-08-19T08:23:23;21.80;99.90
25811;DHT22;13645;52.460;13.910;2022-08-19T08:25:57;21.80;99.90
25811;DHT22;13645;52.460;13.910;2022-08-19T08:28:26;21.80;99.90
25811;DHT22;13645;52.460;13.910;2022-08-19T08:30:56;21.80;99.90
25811;DHT22;13645;52.460;13.910;2022-08-19T08:33:25;21.90;99.90
25811;DHT22;13645;52.460;13.910;2022-08-19T08:36:02;21.90;99.90
25811;DHT22;13645;52.460;13.910;2022-08-19T08:38:30;21.90;99.90
25811;DHT22;13645;52.460;13.910;2022-08-19T08:41:14;21.90;99.90
25811;DHT22;13645;52.460;13.910;2022-08-19T08:43:48;22.00;99.90
25811;DHT22;13645;52.460;13.910;2022-08-19T08:51:45;22.40;99.90
25811;DHT22;13645;52.460;13.910;2022-08-19T08:54:28;22.60;99.90
25811;DHT22;13645;52.460;13.910;2022-08-19T09:00:39;22.90;99.90
25811;DHT22;13645;52.460;13.910;2022-08-19T09:03:23;23.00;99.90
25811;DHT22;13645;52.460;13.910;2022-08-19T09:06:11;23.10;99.90
25811;DHT22;13645;52.460;13.910;2022-08-19T09:08:47;23.30;99.90
25811;DHT22;13645;52.460;13.910;2022-08-19T09:11:29;23.30;99.90
25811;DHT22;13645;52.460;13.910;2022-08-19T09:17:02;23.40;99.90
25811;DHT22;13645;52.460;13.910;2022-08-19T09:19:30;23.50;99.90
25811;DHT22;13645;52.460;13.910;2022-08-19T09:21:58;23.50;99.90
25811;DHT22;13645;52.460;13.910;2022-08-19T09:24:27;23.60;99.90
25811;DHT22;13645;52.460;13.910;2022-08-19T09:26:56;23.60;99.90
25811;DHT22;13645;52.460;13.910;2022-08-19T09:29:23;23.60;99.90
25811;DHT22;13645;52.460;13.910;2022-08-19T09:31:50;23.50;99.90
25811;DHT22;13645;52.460;13.910;2022-08-19T09:34:17;23.40;99.90
25811;DHT22;13645;52.460;13.910;2022-08-19T09:36:48;23.40;99.90
25811;DHT22;13645;52.460;13.910;2022-08-19T09:39:20;23.50;99.90
25811;DHT22;13645;52.460;13.910;2022-08-19T09:41:47;23.60;99.90
25811;DHT22;13645;52.460;13.910;2022-08-19T09:44:18;23.70;99.90
25811;DHT22;13645;52.460;13.910;2022-08-19T09:46:47;24.00;99.90
25811;DHT22;13645;52.460;13.910;2022-08-19T09:49:18;24.50;99.90
25811;DHT22;13645;52.460;13.910;2022-08-19T09:51:49;24.90;99.90
25811;DHT22;13645;52.460;13.910;2022-08-19T09:54:17;25.10;99.90
25811;DHT22;13645;52.460;13.910;2022-08-19T09:56:51;25.20;99.90
25811;DHT22;13645;52.460;13.910;2022-08-19T09:59:18;25.20;99.90
25811;DHT22;13645;52.460;13.910;2022-08-19T10:01:45;25.20;99.90
25811;DHT22;13645;52.460;13.910;2022-08-19T10:04:12;25.20;99.90
25811;DHT22;13645;52.460;13.910;2022-08-19T10:06:49;24.90;99.90
25811;DHT22;13645;52.460;13.910;2022-08-19T10:09:19;24.90;99.90
25811;DHT22;13645;52.460;13.910;2022-08-19T10:11:59;24.80;99.90
25811;DHT22;13645;52.460;13.910;2022-08-19T10:14:28;24.80;99.90
25811;DHT22;13645;52.460;13.910;2022-08-19T10:16:55;24.70;99.90
25811;DHT22;13645;52.460;13.910;2022-08-19T10:19:24;24.60;99.90
25811;DHT22;13645;52.460;13.910;2022-08-19T10:21:53;24.50;99.90
25811;DHT22;13645;52.460;13.910;2022-08-19T10:24:26;24.40;99.90
25811;DHT22;13645;52.460;13.910;2022-08-19T10:26:55;24.40;99.90
25811;DHT22;13645;52.460;13.910;2022-08-19T10:29:26;24.50;99.90
25811;DHT22;13645;52.460;13.910;2022-08-19T10:32:02;24.60;99.90
25811;DHT22;13645;52.460;13.910;2022-08-19T10:34:30;24.70;99.90
25811;DHT22;13645;52.460;13.910;2022-08-19T10:36:58;24.80;99.90
25811;DHT22;13645;52.460;13.910;2022-08-19T10:39:28;25.10;99.90
25811;DHT22;13645;52.460;13.910;2022-08-19T10:41:57;25.20;99.90
25811;DHT22;13645;52.460;13.910;2022-08-19T10:44:23;25.20;99.90
25811;DHT22;13645;52.460;13.910;2022-08-19T10:46:57;25.00;99.90
25811;DHT22;13645;52.460;13.910;2022-08-19T10:49:25;25.00;99.90
25811;DHT22;13645;52.460;13.910;2022-08-19T10:51:54;24.80;99.90
25811;DHT22;13645;52.460;13.910;2022-08-19T10:54:47;24.60;99.90
25811;DHT22;13645;52.460;13.910;2022-08-19T10:57:34;24.50;99.90
25811;DHT22;13645;52.460;13.910;2022-08-19T11:00:22;24.40;99.90
25811;DHT22;13645;52.460;13.910;2022-08-19T11:02:49;24.50;99.90
25811;DHT22;13645;52.460;13.910;2022-08-19T11:05:17;24.50;99.90
25811;DHT22;13645;52.460;13.910;2022-08-19T11:07:44;24.50;99.90
25811;DHT22;13645;52.460;13.910;2022-08-19T11:10:13;24.60;99.90
25811;DHT22;13645;52.460;13.910;2022-08-19T11:12:46;24.60;99.90
25811;DHT22;13645;52.460;13.910;2022-08-19T11:15:13;24.60;99.90
25811;DHT22;13645;52.460;13.910;2022-08-19T11:17:40;24.80;99.90
25811;DHT22;13645;52.460;13.910;2022-08-19T11:20:08;24.90;99.90
25811;DHT22;13645;52.460;13.910;2022-08-19T11:22:35;24.90;99.90
25811;DHT22;13645;52.460;13.910;2022-08-19T11:25:08;24.90;99.90
25811;DHT22;13645;52.460;13.910;2022-08-19T11:27:40;25.00;99.90
25811;DHT22;13645;52.460;13.910;2022-08-19T11:30:12;24.90;99.90
25811;DHT22;13645;52.460;13.910;2022-08-19T11:32:40;24.90;99.90
25811;DHT22;13645;52.460;13.910;2022-08-19T11:35:14;24.90;99.90
25811;DHT22;13645;52.460;13.910;2022-08-19T11:37:40;24.90;99.90
25811;DHT22;13645;52.460;13.910;2022-08-19T11:40:08;24.70;99.90
25811;DHT22;13645;52.460;13.910;2022-08-19T11:42:35;24.60;99.90
25811;DHT22;13645;52.460;13.910;2022-08-19T11:45:20;24.50;99.90
25811;DHT22;13645;52.460;13.910;2022-08-19T11:47:47;24.40;99.90
25811;DHT22;13645;52.460;13.910;2022-08-19T11:50:15;24.40;99.90
25811;DHT22;13645;52.460;13.910;2022-08-19T11:52:54;24.30;99.90
25811;DHT22;13645;52.460;13.910;2022-08-19T11:55:23;24.20;99.90
25811;DHT22;13645;52.460;13.910;2022-08-19T11:57:50;24.30;99.90
25811;DHT22;13645;52.460;13.910;2022-08-19T12:00:17;24.40;99.90
25811;DHT22;13645;52.460;13.910;2022-08-19T12:02:44;24.40;99.90
25811;DHT22;13645;52.460;13.910;2022-08-19T12:05:11;24.50;99.90
25811;DHT22;13645;52.460;13.910;2022-08-19T12:07:39;24.60;99.90
25811;DHT22;13645;52.460;13.910;2022-08-19T12:10:07;24.70;99.90
25811;DHT22;13645;52.460;13.910;2022-08-19T12:12:34;24.70;99.90
25811;DHT22;13645;52.460;13.910;2022-08-19T12:15:01;24.80;99.90
25811;DHT22;13645;52.460;13.910;2022-08-19T12:17:28;24.90;99.90
25811;DHT22;13645;52.460;13.910;2022-08-19T12:19:55;25.00;99.90
25811;DHT22;13645;52.460;13.910;2022-08-19T12:22:22;25.10;99.90
25811;DHT22;13645;52.460;13.910;2022-08-19T12:24:49;25.30;99.90
25811;DHT22;13645;52.460;13.910;2022-08-19T12:27:18;25.50;99.90
25811;DHT22;13645;52.460;13.910;2022-08-19T12:30:07;25.60;99.90
25811;DHT22;13645;52.460;13.910;2022-08-19T12:32:34;25.60;99.90
25811;DHT22;13645;52.460;13.910;2022-08-19T12:35:01;25.60;99.90
25811;DHT22;13645;52.460;13.910;2022-08-19T12:37:28;25.60;99.90
25811;DHT22;13645;52.460;13.910;2022-08-19T12:39:58;25.60;99.90
25811;DHT22;13645;52.460;13.910;2022-08-19T12:42:25;25.70;99.90
25811;DHT22;13645;52.460;13.910;2022-08-19T12:44:52;25.70;99.90
25811;DHT22;13645;52.460;13.910;2022-08-19T12:47:19;25.90;99.90
25811;DHT22;13645;52.460;13.910;2022-08-19T12:49:48;25.90;99.90
25811;DHT22;13645;52.460;13.910;2022-08-19T12:52:25;25.90;99.90
25811;DHT22;13645;52.460;13.910;2022-08-19T12:54:53;25.90;99.90
25811;DHT22;13645;52.460;13.910;2022-08-19T12:57:28;25.90;99.90
25811;DHT22;13645;52.460;13.910;2022-08-19T13:00:14;25.70;99.90
25811;DHT22;13645;52.460;13.910;2022-08-19T13:02:44;25.50;99.90
25811;DHT22;13645;52.460;13.910;2022-08-19T13:05:19;25.40;99.90
25811;DHT22;13645;52.460;13.910;2022-08-19T13:07:47;25.30;99.90
25811;DHT22;13645;52.460;13.910;2022-08-19T13:10:16;25.10;99.90
25811;DHT22;13645;52.460;13.910;2022-08-19T13:12:49;24.90;99.90
25811;DHT22;13645;52.460;13.910;2022-08-19T13:15:18;24.90;99.90
25811;DHT22;13645;52.460;13.910;2022-08-19T13:17:51;24.80;99.90
25811;DHT22;13645;52.460;13.910;2022-08-19T13:20:21;24.70;99.90
25811;DHT22;13645;52.460;13.910;2022-08-19T13:22:50;24.70;99.90
25811;DHT22;13645;52.460;13.910;2022-08-19T13:25:21;24.70;99.90
25811;DHT22;13645;52.460;13.910;2022-08-19T13:27:49;24.70;99.90
25811;DHT22;13645;52.460;13.910;2022-08-19T13:30:18;24.70;99.90
25811;DHT22;13645;52.460;13.910;2022-08-19T13:33:04;24.70;99.90
25811;DHT22;13645;52.460;13.910;2022-08-19T13:35:38;24.60;99.90
25811;DHT22;13645;52.460;13.910;2022-08-19T13:38:05;24.50;99.90
25811;DHT22;13645;52.460;13.910;2022-08-19T13:40:38;24.40;99.90
25811;DHT22;13645;52.460;13.910;2022-08-19T13:43:07;24.30;99.90
25811;DHT22;13645;52.460;13.910;2022-08-19T13:45:48;24.30;99.90
25811;DHT22;13645;52.460;13.910;2022-08-19T13:48:14;24.20;99.90
25811;DHT22;13645;52.460;13.910;2022-08-19T13:50:45;24.20;99.90
25811;DHT22;13645;52.460;13.910;2022-08-19T13:53:14;24.20;99.90
25811;DHT22;13645;52.460;13.910;2022-08-19T13:55:46;24.20;99.90
25811;DHT22;13645;52.460;13.910;2022-08-19T13:58:16;24.20;99.90
25811;DHT22;13645;52.460;13.910;2022-08-19T14:00:45;24.10;99.90
25811;DHT22;13645;52.460;13.910;2022-08-19T14:03:12;24.10;99.90
25811;DHT22;13645;52.460;13.910;2022-08-19T14:05:39;24.10;99.90
25811;DHT22;13645;52.460;13.910;2022-08-19T14:08:06;24.10;99.90
25811;DHT22;13645;52.460;13.910;2022-08-19T14:10:33;24.20;99.90
25811;DHT22;13645;52.460;13.910;2022-08-19T14:13:02;24.20;99.90
25811;DHT22;13645;52.460;13.910;2022-08-19T14:15:29;24.20;99.90
25811;DHT22;13645;52.460;13.910;2022-08-19T14:17:57;24.40;99.90
25811;DHT22;13645;52.460;13.910;2022-08-19T14:20:24;24.50;99.90
25811;DHT22;13645;52.460;13.910;2022-08-19T14:22:53;24.70;99.90
25811;DHT22;13645;52.460;13.910;2022-08-19T14:25:24;24.70;99.90
25811;DHT22;13645;52.460;13.910;2022-08-19T14:27:51;24.90;99.90
25811;DHT22;13645;52.460;13.910;2022-08-19T14:30:22;24.90;99.90
25811;DHT22;13645;52.460;13.910;2022-08-19T14:32:49;24.90;99.90
25811;DHT22;13645;52.460;13.910;2022-08-19T14:35:16;24.90;99.90
25811;DHT22;13645;52.460;13.910;2022-08-19T14:37:43;24.90;99.90
25811;DHT22;13645;52.460;13.910;2022-08-19T14:40:15;24.90;99.90
25811;DHT22;13645;52.460;13.910;2022-08-19T14:42:42;24.70;99.90
25811;DHT22;13645;52.460;13.910;2022-08-19T14:45:11;24.70;99.90
25811;DHT22;13645;52.460;13.910;2022-08-19T14:47:38;24.60;99.90
25811;DHT22;13645;52.460;13.910;2022-08-19T14:50:08;24.60;99.90
25811;DHT22;13645;52.460;13.910;2022-08-19T14:52:37;24.50;99.90
25811;DHT22;13645;52.460;13.910;2022-08-19T14:55:04;24.50;99.90
25811;DHT22;13645;52.460;13.910;2022-08-19T14:57:33;24.40;99.90
25811;DHT22;13645;52.460;13.910;2022-08-19T15:00:00;24.40;99.90
25811;DHT22;13645;52.460;13.910;2022-08-19T15:02:27;24.40;99.90
25811;DHT22;13645;52.460;13.910;2022-08-19T15:05:01;24.30;99.90
25811;DHT22;13645;52.460;13.910;2022-08-19T15:07:28;24.20;99.90
25811;DHT22;13645;52.460;13.910;2022-08-19T15:09:56;24.20;99.90
25811;DHT22;13645;52.460;13.910;2022-08-19T15:12:24;24.20;99.90
25811;DHT22;13645;52.460;13.910;2022-08-19T15:14:52;24.20;99.90
25811;DHT22;13645;52.460;13.910;2022-08-19T15:17:22;24.20;99.90
25811;DHT22;13645;52.460;13.910;2022-08-19T15:20:11;24.10;99.90
25811;DHT22;13645;52.460;13.910;2022-08-19T15:22:39;24.20;99.90
25811;DHT22;13645;52.460;13.910;2022-08-19T15:25:10;24.20;99.90
25811;DHT22;13645;52.460;13.910;2022-08-19T15:27:38;24.10;99.90
25811;DHT22;13645;52.460;13.910;2022-08-19T15:30:06;24.10;99.90
25811;DHT22;13645;52.460;13.910;2022-08-19T15:32:35;24.00;99.90
25811;DHT22;13645;52.460;13.910;2022-08-19T15:35:04;24.00;99.90
25811;DHT22;13645;52.460;13.910;2022-08-19T15:37:31;24.00;99.90
25811;DHT22;13645;52.460;13.910;2022-08-19T15:40:05;23.90;99.90
25811;DHT22;13645;52.460;13.910;2022-08-19T15:42:37;23.90;99.90
25811;DHT22;13645;52.460;13.910;2022-08-19T15:45:06;23.80;99.90
25811;DHT22;13645;52.460;13.910;2022-08-19T15:47:33;23.80;99.90
25811;DHT22;13645;52.460;13.910;2022-08-19T15:50:16;23.80;99.90